createdAt,value
2022-11-07T00:00:23.245Z,6.99
2022-11-07T00:03:25.299Z,6.98
2022-11-07T00:06:27.311Z,6.96
2022-11-07T00:09:29.334Z,6.84
2022-11-07T00:12:31.402Z,6.72
2022-11-07T00:15:33.396Z,6.64
2022-11-07T00:18:36.279Z,6.58
2022-11-07T00:21:39.727Z,6.54
2022-11-07T00:24:42.073Z,6.49
2022-11-07T00:27:44.141Z,6.40
2022-11-07T00:30:46.155Z,6.38
2022-11-07T00:33:48.614Z,6.29
2022-11-07T00:36:50.927Z,6.24
2022-11-07T00:39:52.956Z,6.18
2022-11-07T00:42:54.871Z,6.16
2022-11-07T00:45:57.867Z,6.22
2022-11-07T00:48:59.892Z,6.23
2022-11-07T00:52:01.950Z,6.29
2022-11-07T00:55:04.673Z,6.32
2022-11-07T00:58:11.218Z,6.43
2022-11-07T01:01:20.221Z,6.48
2022-11-07T01:04:41.115Z,6.56
2022-11-07T01:07:43.092Z,6.61
2022-11-07T01:10:45.094Z,6.68
2022-11-07T01:13:47.042Z,6.73
2022-11-07T01:16:50.157Z,6.79
2022-11-07T01:19:52.118Z,6.78
2022-11-07T01:22:54.135Z,6.80
2022-11-07T01:25:56.153Z,6.81
2022-11-07T01:28:58.251Z,6.79
2022-11-07T01:32:00.260Z,6.81
2022-11-07T01:35:02.242Z,6.74
2022-11-07T01:38:04.765Z,6.56
2022-11-07T01:41:21.330Z,6.37
2022-11-07T01:44:23.213Z,6.23
2022-11-07T01:47:31.571Z,6.15
2022-11-07T01:50:33.570Z,6.15
2022-11-07T01:53:36.463Z,6.03
2022-11-07T01:56:42.096Z,6.03
2022-11-07T01:59:44.217Z,6.05
2022-11-07T02:02:49.541Z,6.19
2022-11-07T02:06:00.217Z,6.19
2022-11-07T02:09:02.312Z,6.14
2022-11-07T02:12:04.592Z,6.07
2022-11-07T02:15:09.444Z,6.12
2022-11-07T02:18:11.622Z,6.11
2022-11-07T02:21:19.296Z,6.04
2022-11-07T02:24:34.236Z,6.01
2022-11-07T02:27:37.608Z,5.99
2022-11-07T02:30:39.634Z,5.95
2022-11-07T02:33:42.120Z,5.93
2022-11-07T02:36:44.169Z,5.89
2022-11-07T02:39:46.354Z,5.85
2022-11-07T02:42:48.891Z,5.82
2022-11-07T02:45:51.807Z,5.81
2022-11-07T02:48:59.498Z,5.78
2022-11-07T02:52:01.856Z,5.80
2022-11-07T02:55:05.406Z,5.76
2022-11-07T02:58:07.610Z,5.75
2022-11-07T03:01:10.006Z,5.70
2022-11-07T03:04:12.015Z,5.67
2022-11-07T03:07:13.942Z,5.63
2022-11-07T03:10:17.753Z,5.58
2022-11-07T03:13:19.721Z,5.56
2022-11-07T03:16:21.694Z,5.56
2022-11-07T03:19:23.668Z,5.53
2022-11-07T03:22:25.733Z,5.51
2022-11-07T03:25:27.682Z,5.52
2022-11-07T03:28:29.835Z,5.52
2022-11-07T03:31:31.843Z,5.42
2022-11-07T03:34:33.919Z,5.42
2022-11-07T03:37:36.391Z,5.39
2022-11-07T03:40:39.093Z,5.31
2022-11-07T03:43:41.049Z,5.33
2022-11-07T03:46:43.160Z,5.33
2022-11-07T03:49:45.116Z,5.31
2022-11-07T03:52:48.076Z,5.31
2022-11-07T03:55:50.082Z,5.29
2022-11-07T03:58:52.039Z,5.28
2022-11-07T04:01:54.118Z,5.26
2022-11-07T04:04:56.156Z,5.25
2022-11-07T04:07:58.216Z,5.27
2022-11-07T04:11:00.261Z,5.30
2022-11-07T04:14:20.822Z,5.32
2022-11-07T04:17:22.935Z,5.34
2022-11-07T04:20:24.951Z,5.36
2022-11-07T04:23:26.928Z,5.40
2022-11-07T04:26:47.453Z,5.40
2022-11-07T04:29:49.438Z,5.42
2022-11-07T04:32:53.901Z,5.46
2022-11-07T04:35:55.888Z,5.48
2022-11-07T04:38:58.550Z,5.51
2022-11-07T04:42:00.495Z,5.53
2022-11-07T04:45:02.500Z,5.54
2022-11-07T04:48:05.948Z,5.52
2022-11-07T04:51:14.195Z,5.53
2022-11-07T04:54:16.588Z,5.53
2022-11-07T04:57:18.587Z,5.52
2022-11-07T05:00:21.548Z,5.53
2022-11-07T05:03:23.425Z,5.53
2022-11-07T05:06:25.704Z,5.55
2022-11-07T05:09:28.002Z,5.57
2022-11-07T05:12:29.948Z,5.61
2022-11-07T05:15:31.910Z,5.63
2022-11-07T05:18:33.942Z,5.66
2022-11-07T05:21:35.914Z,5.67
2022-11-07T05:24:38.126Z,5.65
2022-11-07T05:27:40.083Z,5.64
2022-11-07T05:30:44.088Z,5.64
2022-11-07T05:33:46.128Z,5.63
2022-11-07T05:36:48.297Z,5.66
2022-11-07T05:39:54.826Z,5.65
2022-11-07T05:43:01.705Z,5.68
2022-11-07T05:46:03.844Z,5.68
2022-11-07T05:49:06.018Z,5.65
2022-11-07T05:52:07.942Z,5.73
2022-11-07T05:55:09.911Z,5.74
2022-11-07T05:58:12.616Z,5.74
2022-11-07T06:01:14.625Z,5.76
2022-11-07T06:04:16.600Z,5.79
2022-11-07T06:07:18.572Z,5.81
2022-11-07T06:10:21.017Z,5.85
2022-11-07T06:13:23.314Z,5.92
2022-11-07T06:16:25.555Z,6.01
2022-11-07T06:19:27.561Z,6.08
2022-11-07T06:22:30.319Z,6.13
2022-11-07T06:25:33.037Z,6.19
2022-11-07T06:28:35.314Z,6.27
2022-11-07T06:31:37.386Z,6.29
2022-11-07T06:34:39.460Z,6.34
2022-11-07T06:37:41.458Z,6.37
2022-11-07T06:40:44.563Z,6.37
2022-11-07T06:43:46.637Z,6.39
2022-11-07T06:46:48.673Z,6.38
2022-11-07T06:49:50.721Z,6.38
2022-11-07T06:52:52.734Z,6.39
2022-11-07T06:55:55.727Z,6.42
2022-11-07T06:58:57.802Z,6.45
2022-11-07T07:02:00.089Z,6.48
2022-11-07T07:05:02.116Z,6.56
2022-11-07T07:08:05.937Z,6.63
2022-11-07T07:11:10.635Z,6.70
2022-11-07T07:14:12.769Z,6.77
2022-11-07T07:17:14.731Z,6.79
2022-11-07T07:20:16.850Z,6.81
2022-11-07T07:23:20.189Z,6.79
2022-11-07T07:26:22.448Z,6.72
2022-11-07T07:29:25.215Z,6.73
2022-11-07T07:32:27.240Z,6.73
2022-11-07T07:35:29.280Z,6.75
2022-11-07T07:38:31.556Z,6.80
2022-11-07T07:41:38.992Z,6.87
2022-11-07T07:44:42.048Z,6.75
2022-11-07T07:47:44.116Z,6.81
2022-11-07T07:50:52.452Z,6.93
2022-11-07T07:53:54.619Z,7.06
2022-11-07T07:56:56.594Z,7.16
2022-11-07T07:59:58.801Z,7.33
2022-11-07T08:03:11.901Z,7.50
2022-11-07T08:06:13.806Z,7.68
2022-11-07T08:09:15.755Z,7.89
2022-11-07T08:12:17.747Z,7.97
2022-11-07T08:15:20.549Z,8.13
2022-11-07T08:18:24.297Z,8.40
2022-11-07T08:21:26.297Z,8.61
2022-11-07T08:24:28.520Z,8.88
2022-11-07T08:27:30.629Z,9.06
2022-11-07T08:30:32.864Z,9.13
2022-11-07T08:33:35.515Z,9.22
2022-11-07T08:36:39.905Z,9.19
2022-11-07T08:39:41.907Z,9.15
2022-11-07T08:42:43.944Z,9.13
2022-11-07T08:45:47.820Z,9.08
2022-11-07T08:48:50.159Z,9.22
2022-11-07T08:51:52.238Z,9.21
2022-11-07T08:54:54.330Z,9.25
2022-11-07T08:58:01.169Z,9.32
2022-11-07T09:01:08.121Z,9.38
2022-11-07T09:04:10.363Z,9.43
2022-11-07T09:07:12.383Z,9.59
2022-11-07T09:10:14.670Z,9.73
2022-11-07T09:13:17.208Z,9.80
2022-11-07T09:16:20.390Z,10.13
2022-11-07T09:19:22.458Z,10.32
2022-11-07T09:22:24.547Z,10.57
2022-11-07T09:25:27.092Z,10.77
2022-11-07T09:28:29.796Z,10.85
2022-11-07T09:31:31.781Z,10.89
2022-11-07T09:34:33.747Z,10.74
2022-11-07T09:37:39.325Z,10.80
2022-11-07T09:41:00.539Z,11.00
2022-11-07T09:44:28.067Z,11.38
2022-11-07T09:47:37.432Z,11.76
2022-11-07T09:50:43.131Z,12.37
2022-11-07T09:53:51.278Z,12.84
2022-11-07T09:56:55.835Z,13.50
2022-11-07T10:00:02.232Z,14.32
2022-11-07T10:03:08.988Z,15.15
2022-11-07T10:06:25.134Z,15.92
2022-11-07T10:09:49.676Z,16.39
2022-11-07T10:13:06.730Z,17.46
2022-11-07T10:16:17.785Z,18.39
2022-11-07T10:19:43.948Z,18.50
2022-11-07T10:22:58.061Z,17.60
2022-11-07T10:26:08.181Z,16.18
2022-11-07T10:29:21.403Z,16.13
2022-11-07T10:32:29.319Z,15.83
2022-11-07T10:35:34.070Z,15.19
2022-11-07T10:38:41.438Z,15.14
2022-11-07T10:42:14.440Z,15.19
2022-11-07T10:45:17.795Z,15.44
2022-11-07T10:48:19.929Z,15.71
2022-11-07T10:51:42.607Z,16.68
2022-11-07T10:54:47.526Z,17.61
2022-11-07T10:58:12.466Z,18.39
2022-11-07T11:01:22.990Z,18.59
2022-11-07T11:04:30.495Z,19.03
2022-11-07T11:07:38.802Z,19.13
2022-11-07T11:10:42.258Z,18.53
2022-11-07T11:13:44.332Z,19.58
2022-11-07T11:16:50.016Z,20.16
2022-11-07T11:19:53.840Z,19.03
2022-11-07T11:22:55.931Z,20.02
2022-11-07T11:26:14.342Z,19.90
2022-11-07T11:29:50.527Z,19.59
2022-11-07T11:33:06.783Z,19.89
2022-11-07T11:36:19.589Z,20.74
2022-11-07T11:39:33.122Z,20.81
2022-11-07T11:42:53.995Z,20.16
2022-11-07T11:46:02.493Z,19.67
2022-11-07T11:49:36.651Z,19.50
2022-11-07T11:52:39.027Z,19.34
2022-11-07T11:55:52.174Z,19.62
2022-11-07T11:59:09.731Z,19.43
2022-11-07T12:02:27.022Z,18.56
2022-11-07T12:06:04.848Z,18.24
2022-11-07T12:09:17.168Z,17.49
2022-11-07T12:12:38.185Z,17.11
2022-11-07T12:16:17.648Z,16.84
2022-11-07T12:19:46.241Z,16.18
2022-11-07T12:23:16.453Z,16.06
2022-11-07T12:26:24.278Z,15.96
2022-11-07T12:29:48.214Z,15.67
2022-11-07T12:32:50.128Z,15.49
2022-11-07T12:36:00.619Z,15.47
2022-11-07T12:39:17.916Z,15.71
2022-11-07T12:42:34.684Z,15.76
2022-11-07T12:45:48.807Z,16.36
2022-11-07T12:49:15.512Z,16.98
2022-11-07T12:53:06.021Z,17.84
2022-11-07T12:56:20.180Z,18.61
2022-11-07T12:59:29.793Z,18.20
2022-11-07T13:02:44.175Z,18.51
2022-11-07T13:06:19.140Z,18.03
2022-11-07T13:09:26.833Z,17.40
2022-11-07T13:12:36.477Z,17.39
2022-11-07T13:16:08.961Z,17.25
2022-11-07T13:19:21.010Z,16.90
2022-11-07T13:22:32.509Z,16.76
2022-11-07T13:25:34.989Z,16.73
2022-11-07T13:28:44.449Z,16.65
2022-11-07T13:31:46.502Z,16.27
2022-11-07T13:34:58.026Z,16.32
2022-11-07T13:38:12.043Z,16.30
2022-11-07T13:41:16.026Z,16.08
2022-11-07T13:44:29.510Z,15.99
2022-11-07T13:47:39.384Z,15.78
2022-11-07T13:50:46.649Z,15.80
2022-11-07T13:53:48.566Z,15.62
2022-11-07T13:56:59.714Z,15.52
2022-11-07T14:00:14.528Z,15.46
2022-11-07T14:03:29.519Z,15.31
2022-11-07T14:06:32.552Z,15.18
2022-11-07T14:09:34.807Z,14.98
2022-11-07T14:12:40.383Z,14.91
2022-11-07T14:15:54.020Z,14.77
2022-11-07T14:19:04.513Z,14.68
2022-11-07T14:22:08.756Z,14.62
2022-11-07T14:25:35.799Z,14.54
2022-11-07T14:28:39.975Z,14.51
2022-11-07T14:31:42.219Z,14.50
2022-11-07T14:34:46.451Z,14.51
2022-11-07T14:37:48.640Z,14.37
2022-11-07T14:40:53.182Z,14.33
2022-11-07T14:44:03.878Z,14.25
2022-11-07T14:47:08.432Z,14.13
2022-11-07T14:50:16.011Z,14.06
2022-11-07T14:53:22.397Z,13.98
2022-11-07T14:56:34.658Z,13.94
2022-11-07T14:59:38.057Z,13.85
2022-11-07T15:02:40.432Z,13.71
2022-11-07T15:05:42.388Z,13.61
2022-11-07T15:08:56.862Z,13.37
2022-11-07T15:12:00.954Z,13.39
2022-11-07T15:15:17.141Z,13.22
2022-11-07T15:18:26.802Z,13.09
2022-11-07T15:21:32.943Z,12.84
2022-11-07T15:24:45.218Z,12.64
2022-11-07T15:27:47.235Z,12.46
2022-11-07T15:30:51.994Z,12.29
2022-11-07T15:33:57.332Z,12.10
2022-11-07T15:36:59.262Z,11.97
2022-11-07T15:40:13.152Z,11.85
2022-11-07T15:43:15.483Z,11.73
2022-11-07T15:46:39.335Z,11.57
2022-11-07T15:49:41.402Z,11.38
2022-11-07T15:52:44.574Z,11.25
2022-11-07T15:55:47.313Z,11.14
2022-11-07T15:58:50.683Z,11.10
2022-11-07T16:01:52.715Z,11.00
2022-11-07T16:04:54.840Z,10.88
2022-11-07T16:07:58.402Z,10.78
2022-11-07T16:11:02.678Z,10.70
2022-11-07T16:14:36.399Z,10.67
2022-11-07T16:17:27.240Z,10.66
2022-11-07T16:20:33.633Z,10.58
2022-11-07T16:23:37.360Z,10.50
2022-11-07T16:26:40.475Z,10.39
2022-11-07T16:29:44.391Z,10.28
2022-11-07T16:32:47.227Z,10.22
2022-11-07T16:35:51.933Z,10.14
2022-11-07T16:38:55.549Z,10.05
2022-11-07T16:41:58.693Z,9.98
2022-11-07T16:45:02.544Z,9.98
2022-11-07T16:48:05.962Z,9.93
2022-11-07T16:51:15.606Z,9.89
2022-11-07T16:54:18.330Z,9.81
2022-11-07T16:57:21.234Z,9.76
2022-11-07T17:00:24.977Z,9.70
2022-11-07T17:03:29.589Z,9.71
2022-11-07T17:06:35.030Z,9.71
2022-11-07T17:09:38.807Z,9.65
2022-11-07T17:12:41.844Z,9.53
2022-11-07T17:15:47.472Z,9.46
2022-11-07T17:18:51.578Z,9.36
2022-11-07T17:21:54.339Z,9.27
2022-11-07T17:24:59.301Z,9.20
2022-11-07T17:28:02.127Z,9.12
2022-11-07T17:31:05.260Z,9.10
2022-11-07T17:34:08.856Z,9.04
2022-11-07T17:37:15.711Z,9.00
2022-11-07T17:40:26.759Z,8.96
2022-11-07T17:43:29.894Z,8.89
2022-11-07T17:46:34.656Z,8.78
2022-11-07T17:49:37.704Z,8.73
2022-11-07T17:52:41.876Z,8.66
2022-11-07T17:55:45.044Z,8.63
2022-11-07T17:58:52.631Z,8.54
2022-11-07T18:01:55.441Z,8.49
2022-11-07T18:04:58.406Z,8.41
2022-11-07T18:08:01.750Z,8.36
2022-11-07T18:11:04.951Z,8.27
2022-11-07T18:14:08.256Z,8.24
2022-11-07T18:17:11.430Z,8.18
2022-11-07T18:20:17.390Z,8.18
2022-11-07T18:23:20.505Z,8.13
2022-11-07T18:26:32.992Z,8.09
2022-11-07T18:29:36.782Z,8.03
2022-11-07T18:32:39.998Z,7.99
2022-11-07T18:35:43.059Z,7.95
2022-11-07T18:38:47.728Z,7.98
2022-11-07T18:41:54.599Z,8.19
2022-11-07T18:44:57.782Z,8.34
2022-11-07T18:48:02.049Z,8.49
2022-11-07T18:51:10.095Z,8.55
2022-11-07T18:54:14.354Z,8.55
2022-11-07T18:57:17.475Z,8.52
2022-11-07T19:00:20.793Z,8.52
2022-11-07T19:03:23.510Z,8.44
2022-11-07T19:06:33.241Z,8.29
2022-11-07T19:09:37.530Z,8.27
2022-11-07T19:12:41.222Z,8.20
2022-11-07T19:15:45.576Z,8.15
2022-11-07T19:18:50.395Z,8.10
2022-11-07T19:21:53.122Z,8.05
2022-11-07T19:24:56.117Z,8.07
2022-11-07T19:27:59.495Z,8.09
2022-11-07T19:31:04.362Z,8.21
2022-11-07T19:34:08.766Z,8.26
2022-11-07T19:37:12.520Z,8.29
2022-11-07T19:40:15.706Z,8.19
2022-11-07T19:43:19.797Z,7.99
2022-11-07T19:46:24.054Z,7.89
2022-11-07T19:49:26.745Z,7.76
2022-11-07T19:52:29.830Z,7.65
2022-11-07T19:55:33.750Z,7.57
2022-11-07T19:58:40.981Z,7.49
2022-11-07T20:02:04.134Z,7.40
2022-11-07T20:05:09.900Z,7.31
2022-11-07T20:08:14.230Z,7.24
2022-11-07T20:11:23.153Z,7.17
2022-11-07T20:14:28.668Z,7.11
2022-11-07T20:17:32.547Z,7.05
2022-11-07T20:20:35.190Z,7.01
2022-11-07T20:23:37.900Z,7.06
2022-11-07T20:26:45.238Z,7.17
2022-11-07T20:29:49.850Z,7.14
2022-11-07T20:32:53.020Z,7.11
2022-11-07T20:36:05.014Z,7.08
2022-11-07T20:39:08.847Z,6.98
2022-11-07T20:42:11.953Z,6.98
2022-11-07T20:45:14.814Z,6.94
2022-11-07T20:48:18.862Z,6.90
2022-11-07T20:51:26.206Z,6.87
2022-11-07T20:54:30.362Z,6.88
2022-11-07T20:57:34.609Z,6.91
2022-11-07T21:00:40.459Z,6.91
2022-11-07T21:03:43.579Z,6.95
2022-11-07T21:06:46.830Z,6.94
2022-11-07T21:09:49.977Z,6.91
2022-11-07T21:12:52.825Z,6.88
2022-11-07T21:15:55.821Z,6.87
2022-11-07T21:18:58.539Z,6.83
2022-11-07T21:22:01.123Z,6.79
2022-11-07T21:25:07.217Z,6.74
2022-11-07T21:28:13.153Z,6.66
2022-11-07T21:31:20.097Z,6.61
2022-11-07T21:34:22.079Z,6.59
2022-11-07T21:37:24.287Z,6.56
2022-11-07T21:40:27.231Z,6.54
2022-11-07T21:43:29.291Z,6.53
2022-11-07T21:46:34.417Z,6.54
2022-11-07T21:49:36.375Z,6.53
2022-11-07T21:52:38.330Z,6.57
2022-11-07T21:55:40.343Z,6.61
2022-11-07T21:58:42.831Z,6.65
2022-11-07T22:01:46.552Z,6.68
2022-11-07T22:04:48.607Z,6.72
2022-11-07T22:07:51.383Z,6.73
2022-11-07T22:10:53.544Z,6.75
2022-11-07T22:13:56.092Z,6.73
2022-11-07T22:16:58.057Z,6.71
2022-11-07T22:20:00.264Z,6.69
2022-11-07T22:23:02.242Z,6.66
2022-11-07T22:26:15.221Z,6.66
2022-11-07T22:29:17.143Z,6.64
2022-11-07T22:32:19.203Z,6.64
2022-11-07T22:35:21.230Z,6.63
2022-11-07T22:38:23.910Z,6.65
2022-11-07T22:41:27.606Z,6.70
2022-11-07T22:44:29.599Z,6.73
2022-11-07T22:47:31.605Z,6.74
2022-11-07T22:50:34.428Z,6.74
2022-11-07T22:53:38.208Z,6.77
2022-11-07T22:56:41.150Z,6.71
2022-11-07T22:59:43.139Z,6.68
2022-11-07T23:02:45.207Z,6.68
2022-11-07T23:05:47.208Z,6.55
2022-11-07T23:08:49.505Z,6.49
2022-11-07T23:11:51.529Z,6.40
2022-11-07T23:14:56.854Z,6.29
2022-11-07T23:17:59.091Z,6.17
2022-11-07T23:21:10.453Z,6.08
2022-11-07T23:24:12.800Z,6.00
2022-11-07T23:27:15.964Z,5.95
2022-11-07T23:30:20.359Z,5.95
2022-11-07T23:33:23.199Z,5.90
2022-11-07T23:36:26.138Z,5.86
2022-11-07T23:39:30.100Z,5.81
2022-11-07T23:42:32.806Z,5.77
2022-11-07T23:45:53.812Z,5.77
2022-11-07T23:49:15.011Z,5.72
2022-11-07T23:52:18.546Z,5.66
2022-11-07T23:55:39.992Z,5.65
2022-11-07T23:59:21.143Z,5.60
